sensor_id;sensor_type;location;lat;lon;timestamp;P1;durP1;ratioP1;P2;durP2;ratioP2
3849;SDS011;1940;51.052;13.678;2023-04-16T00:01:00;36.50;;;20.67;;
3849;SDS011;1940;51.052;13.678;2023-04-16T00:03:25;50.13;;;28.67;;
3849;SDS011;1940;51.052;13.678;2023-04-16T00:05:51;35.40;;;20.30;;
3849;SDS011;1940;51.052;13.678;2023-04-16T00:08:19;33.50;;;20.40;;
3849;SDS011;1940;51.052;13.678;2023-04-16T00:10:45;34.90;;;19.60;;
3849;SDS011;1940;51.052;13.678;2023-04-16T00:13:11;33.90;;;18.53;;
3849;SDS011;1940;51.052;13.678;2023-04-16T00:15:36;35.80;;;17.83;;
3849;SDS011;1940;51.052;13.678;2023-04-16T00:18:02;29.80;;;17.10;;
3849;SDS011;1940;51.052;13.678;2023-04-16T00:20:27;26.23;;;15.77;;
3849;SDS011;1940;51.052;13.678;2023-04-16T00:22:53;24.27;;;14.63;;
3849;SDS011;1940;51.052;13.678;2023-04-16T00:25:18;26.53;;;15.53;;
3849;SDS011;1940;51.052;13.678;2023-04-16T00:27:44;34.03;;;16.83;;
3849;SDS011;1940;51.052;13.678;2023-04-16T00:30:09;26.57;;;15.80;;
3849;SDS011;1940;51.052;13.678;2023-04-16T00:32:35;24.17;;;14.17;;
3849;SDS011;1940;51.052;13.678;2023-04-16T00:35:01;27.23;;;15.33;;
3849;SDS011;1940;51.052;13.678;2023-04-16T00:37:26;29.93;;;16.20;;
3849;SDS011;1940;51.052;13.678;2023-04-16T00:39:51;24.47;;;14.33;;
3849;SDS011;1940;51.052;13.678;2023-04-16T00:42:17;27.03;;;15.33;;
3849;SDS011;1940;51.052;13.678;2023-04-16T00:44:42;26.37;;;15.73;;
3849;SDS011;1940;51.052;13.678;2023-04-16T00:47:08;30.70;;;15.53;;
3849;SDS011;1940;51.052;13.678;2023-04-16T00:49:34;24.57;;;15.43;;
3849;SDS011;1940;51.052;13.678;2023-04-16T00:52:00;28.90;;;15.20;;
3849;SDS011;1940;51.052;13.678;2023-04-16T00:54:27;30.50;;;16.13;;
3849;SDS011;1940;51.052;13.678;2023-04-16T00:56:52;25.80;;;14.77;;
3849;SDS011;1940;51.052;13.678;2023-04-16T00:59:18;24.70;;;14.30;;
3849;SDS011;1940;51.052;13.678;2023-04-16T01:01:44;25.17;;;15.03;;
3849;SDS011;1940;51.052;13.678;2023-04-16T01:04:09;24.87;;;14.90;;
3849;SDS011;1940;51.052;13.678;2023-04-16T01:06:35;24.80;;;14.70;;
3849;SDS011;1940;51.052;13.678;2023-04-16T01:09:00;27.83;;;14.93;;
3849;SDS011;1940;51.052;13.678;2023-04-16T01:11:26;31.07;;;16.90;;
3849;SDS011;1940;51.052;13.678;2023-04-16T01:13:51;30.40;;;17.07;;
3849;SDS011;1940;51.052;13.678;2023-04-16T01:16:17;32.73;;;16.60;;
3849;SDS011;1940;51.052;13.678;2023-04-16T01:18:42;28.00;;;15.10;;
3849;SDS011;1940;51.052;13.678;2023-04-16T01:21:08;25.10;;;14.60;;
3849;SDS011;1940;51.052;13.678;2023-04-16T01:23:33;27.07;;;14.17;;
3849;SDS011;1940;51.052;13.678;2023-04-16T01:25:59;25.57;;;13.53;;
3849;SDS011;1940;51.052;13.678;2023-04-16T01:28:24;23.03;;;12.93;;
3849;SDS011;1940;51.052;13.678;2023-04-16T01:30:50;26.07;;;13.97;;
3849;SDS011;1940;51.052;13.678;2023-04-16T01:33:16;31.20;;;15.97;;
3849;SDS011;1940;51.052;13.678;2023-04-16T01:35:42;27.47;;;14.77;;
3849;SDS011;1940;51.052;13.678;2023-04-16T01:38:08;24.10;;;13.43;;
3849;SDS011;1940;51.052;13.678;2023-04-16T01:40:34;22.93;;;13.67;;
3849;SDS011;1940;51.052;13.678;2023-04-16T01:43:01;24.77;;;13.10;;
3849;SDS011;1940;51.052;13.678;2023-04-16T01:45:26;26.50;;;13.20;;
3849;SDS011;1940;51.052;13.678;2023-04-16T01:47:52;23.87;;;13.43;;
3849;SDS011;1940;51.052;13.678;2023-04-16T01:50:18;28.10;;;14.03;;
3849;SDS011;1940;51.052;13.678;2023-04-16T01:52:44;24.70;;;13.57;;
3849;SDS011;1940;51.052;13.678;2023-04-16T01:55:10;24.30;;;13.77;;
3849;SDS011;1940;51.052;13.678;2023-04-16T01:57:36;30.97;;;15.43;;
3849;SDS011;1940;51.052;13.678;2023-04-16T02:00:02;39.47;;;21.20;;
3849;SDS011;1940;51.052;13.678;2023-04-16T02:02:28;23.83;;;13.50;;
3849;SDS011;1940;51.052;13.678;2023-04-16T02:04:54;24.00;;;13.03;;
3849;SDS011;1940;51.052;13.678;2023-04-16T02:07:21;29.00;;;13.97;;
3849;SDS011;1940;51.052;13.678;2023-04-16T02:09:47;24.30;;;14.10;;
3849;SDS011;1940;51.052;13.678;2023-04-16T02:12:14;25.10;;;13.90;;
3849;SDS011;1940;51.052;13.678;2023-04-16T02:14:40;24.77;;;14.40;;
3849;SDS011;1940;51.052;13.678;2023-04-16T02:17:05;24.60;;;13.73;;
3849;SDS011;1940;51.052;13.678;2023-04-16T02:19:31;23.33;;;12.83;;
3849;SDS011;1940;51.052;13.678;2023-04-16T02:21:56;24.17;;;12.50;;
3849;SDS011;1940;51.052;13.678;2023-04-16T02:24:21;24.93;;;14.10;;
3849;SDS011;1940;51.052;13.678;2023-04-16T02:26:47;26.23;;;14.60;;
3849;SDS011;1940;51.052;13.678;2023-04-16T02:29:12;25.90;;;14.20;;
3849;SDS011;1940;51.052;13.678;2023-04-16T02:31:38;30.03;;;14.00;;
3849;SDS011;1940;51.052;13.678;2023-04-16T02:34:04;24.43;;;13.83;;
3849;SDS011;1940;51.052;13.678;2023-04-16T02:36:30;28.83;;;14.87;;
3849;SDS011;1940;51.052;13.678;2023-04-16T02:38:56;25.93;;;13.50;;
3849;SDS011;1940;51.052;13.678;2023-04-16T02:41:22;30.00;;;14.90;;
3849;SDS011;1940;51.052;13.678;2023-04-16T02:43:48;23.00;;;13.97;;
3849;SDS011;1940;51.052;13.678;2023-04-16T02:46:13;22.50;;;13.27;;
3849;SDS011;1940;51.052;13.678;2023-04-16T02:48:39;30.20;;;15.00;;
3849;SDS011;1940;51.052;13.678;2023-04-16T02:51:04;26.27;;;15.03;;
3849;SDS011;1940;51.052;13.678;2023-04-16T02:53:29;23.63;;;13.73;;
3849;SDS011;1940;51.052;13.678;2023-04-16T02:55:55;26.70;;;13.50;;
3849;SDS011;1940;51.052;13.678;2023-04-16T02:58:21;29.23;;;15.07;;
3849;SDS011;1940;51.052;13.678;2023-04-16T03:00:48;26.20;;;14.27;;
3849;SDS011;1940;51.052;13.678;2023-04-16T03:03:14;28.33;;;14.20;;
3849;SDS011;1940;51.052;13.678;2023-04-16T03:05:40;28.40;;;16.47;;
3849;SDS011;1940;51.052;13.678;2023-04-16T03:08:06;32.90;;;14.83;;
3849;SDS011;1940;51.052;13.678;2023-04-16T03:10:32;25.73;;;14.23;;
3849;SDS011;1940;51.052;13.678;2023-04-16T03:12:58;27.90;;;14.27;;
3849;SDS011;1940;51.052;13.678;2023-04-16T03:15:24;27.23;;;15.60;;
3849;SDS011;1940;51.052;13.678;2023-04-16T03:17:50;27.47;;;14.97;;
3849;SDS011;1940;51.052;13.678;2023-04-16T03:20:15;25.57;;;15.60;;
3849;SDS011;1940;51.052;13.678;2023-04-16T03:22:41;23.77;;;13.17;;
3849;SDS011;1940;51.052;13.678;2023-04-16T03:25:07;27.80;;;15.33;;
3849;SDS011;1940;51.052;13.678;2023-04-16T03:27:33;28.73;;;14.80;;
3849;SDS011;1940;51.052;13.678;2023-04-16T03:29:59;26.30;;;13.80;;
3849;SDS011;1940;51.052;13.678;2023-04-16T03:32:25;23.10;;;13.00;;
3849;SDS011;1940;51.052;13.678;2023-04-16T03:34:50;24.37;;;13.30;;
3849;SDS011;1940;51.052;13.678;2023-04-16T03:37:16;26.50;;;14.43;;
3849;SDS011;1940;51.052;13.678;2023-04-16T03:39:41;20.33;;;12.60;;
3849;SDS011;1940;51.052;13.678;2023-04-16T03:42:07;24.50;;;13.90;;
3849;SDS011;1940;51.052;13.678;2023-04-16T03:44:32;26.40;;;13.97;;
3849;SDS011;1940;51.052;13.678;2023-04-16T03:46:58;23.47;;;13.83;;
3849;SDS011;1940;51.052;13.678;2023-04-16T03:49:23;22.13;;;13.20;;
3849;SDS011;1940;51.052;13.678;2023-04-16T03:51:49;31.60;;;14.10;;
3849;SDS011;1940;51.052;13.678;2023-04-16T03:54:15;26.73;;;14.07;;
3849;SDS011;1940;51.052;13.678;2023-04-16T03:56:40;24.23;;;13.10;;
3849;SDS011;1940;51.052;13.678;2023-04-16T03:59:07;27.03;;;14.43;;
3849;SDS011;1940;51.052;13.678;2023-04-16T04:01:32;25.27;;;13.73;;
3849;SDS011;1940;51.052;13.678;2023-04-16T04:03:58;24.40;;;13.20;;
3849;SDS011;1940;51.052;13.678;2023-04-16T04:06:24;25.67;;;13.77;;
3849;SDS011;1940;51.052;13.678;2023-04-16T04:08:49;23.13;;;13.50;;
3849;SDS011;1940;51.052;13.678;2023-04-16T04:11:15;23.20;;;12.87;;
3849;SDS011;1940;51.052;13.678;2023-04-16T04:13:40;26.27;;;14.63;;
3849;SDS011;1940;51.052;13.678;2023-04-16T04:16:06;20.57;;;11.83;;
3849;SDS011;1940;51.052;13.678;2023-04-16T04:18:31;25.60;;;14.80;;
3849;SDS011;1940;51.052;13.678;2023-04-16T04:20:57;23.73;;;13.73;;
3849;SDS011;1940;51.052;13.678;2023-04-16T04:23:22;22.67;;;13.60;;
3849;SDS011;1940;51.052;13.678;2023-04-16T04:25:48;22.80;;;13.27;;
3849;SDS011;1940;51.052;13.678;2023-04-16T04:28:14;21.80;;;12.63;;
3849;SDS011;1940;51.052;13.678;2023-04-16T04:30:39;24.63;;;13.57;;
3849;SDS011;1940;51.052;13.678;2023-04-16T04:33:05;22.20;;;13.23;;
3849;SDS011;1940;51.052;13.678;2023-04-16T04:35:30;26.00;;;14.40;;
3849;SDS011;1940;51.052;13.678;2023-04-16T04:37:56;23.93;;;13.30;;
3849;SDS011;1940;51.052;13.678;2023-04-16T04:40:22;28.50;;;14.60;;
3849;SDS011;1940;51.052;13.678;2023-04-16T04:42:47;23.27;;;13.80;;
3849;SDS011;1940;51.052;13.678;2023-04-16T04:45:13;26.57;;;14.00;;
3849;SDS011;1940;51.052;13.678;2023-04-16T04:47:38;26.10;;;14.23;;
3849;SDS011;1940;51.052;13.678;2023-04-16T04:50:04;29.50;;;14.73;;
3849;SDS011;1940;51.052;13.678;2023-04-16T04:52:30;24.33;;;14.23;;
3849;SDS011;1940;51.052;13.678;2023-04-16T04:54:55;28.17;;;14.93;;
3849;SDS011;1940;51.052;13.678;2023-04-16T04:57:21;24.10;;;13.40;;
3849;SDS011;1940;51.052;13.678;2023-04-16T04:59:46;22.03;;;13.10;;
3849;SDS011;1940;51.052;13.678;2023-04-16T05:02:12;21.43;;;12.43;;
3849;SDS011;1940;51.052;13.678;2023-04-16T05:04:37;22.37;;;11.50;;
3849;SDS011;1940;51.052;13.678;2023-04-16T05:07:03;20.40;;;12.03;;
3849;SDS011;1940;51.052;13.678;2023-04-16T05:09:28;19.37;;;11.10;;
3849;SDS011;1940;51.052;13.678;2023-04-16T05:11:54;17.87;;;10.27;;
3849;SDS011;1940;51.052;13.678;2023-04-16T05:14:19;20.87;;;10.60;;
3849;SDS011;1940;51.052;13.678;2023-04-16T05:16:45;16.53;;;9.00;;
3849;SDS011;1940;51.052;13.678;2023-04-16T05:19:10;20.03;;;10.30;;
3849;SDS011;1940;51.052;13.678;2023-04-16T05:21:36;19.03;;;11.17;;
3849;SDS011;1940;51.052;13.678;2023-04-16T05:24:01;18.87;;;10.83;;
3849;SDS011;1940;51.052;13.678;2023-04-16T05:26:26;17.53;;;10.33;;
3849;SDS011;1940;51.052;13.678;2023-04-16T05:28:52;19.90;;;10.47;;
3849;SDS011;1940;51.052;13.678;2023-04-16T05:31:17;21.00;;;10.10;;
3849;SDS011;1940;51.052;13.678;2023-04-16T05:33:43;16.60;;;10.37;;
3849;SDS011;1940;51.052;13.678;2023-04-16T05:36:08;17.20;;;10.50;;
3849;SDS011;1940;51.052;13.678;2023-04-16T05:38:34;16.00;;;9.87;;
3849;SDS011;1940;51.052;13.678;2023-04-16T05:40:59;18.50;;;10.57;;
3849;SDS011;1940;51.052;13.678;2023-04-16T05:43:25;17.10;;;9.30;;
3849;SDS011;1940;51.052;13.678;2023-04-16T05:45:50;18.57;;;10.67;;
3849;SDS011;1940;51.052;13.678;2023-04-16T05:48:16;16.33;;;10.20;;
3849;SDS011;1940;51.052;13.678;2023-04-16T05:50:41;23.07;;;10.77;;
3849;SDS011;1940;51.052;13.678;2023-04-16T05:53:07;18.30;;;10.50;;
3849;SDS011;1940;51.052;13.678;2023-04-16T05:55:33;18.73;;;10.97;;
3849;SDS011;1940;51.052;13.678;2023-04-16T05:58:00;17.83;;;11.10;;
3849;SDS011;1940;51.052;13.678;2023-04-16T06:00:28;18.17;;;11.10;;
3849;SDS011;1940;51.052;13.678;2023-04-16T06:02:54;17.90;;;10.70;;
3849;SDS011;1940;51.052;13.678;2023-04-16T06:05:20;17.67;;;10.00;;
3849;SDS011;1940;51.052;13.678;2023-04-16T06:07:45;17.10;;;10.10;;
3849;SDS011;1940;51.052;13.678;2023-04-16T06:10:11;16.47;;;10.00;;
3849;SDS011;1940;51.052;13.678;2023-04-16T06:12:36;14.70;;;9.30;;
3849;SDS011;1940;51.052;13.678;2023-04-16T06:15:02;15.63;;;9.53;;
3849;SDS011;1940;51.052;13.678;2023-04-16T06:17:27;13.73;;;8.40;;
3849;SDS011;1940;51.052;13.678;2023-04-16T06:19:53;14.53;;;9.37;;
3849;SDS011;1940;51.052;13.678;2023-04-16T06:22:18;13.13;;;8.50;;
3849;SDS011;1940;51.052;13.678;2023-04-16T06:24:44;14.87;;;8.87;;
3849;SDS011;1940;51.052;13.678;2023-04-16T06:27:09;17.43;;;10.23;;
3849;SDS011;1940;51.052;13.678;2023-04-16T06:29:35;15.27;;;8.90;;
3849;SDS011;1940;51.052;13.678;2023-04-16T06:32:01;13.53;;;9.20;;
3849;SDS011;1940;51.052;13.678;2023-04-16T06:34:27;13.40;;;8.80;;
3849;SDS011;1940;51.052;13.678;2023-04-16T06:36:53;14.53;;;9.47;;
3849;SDS011;1940;51.052;13.678;2023-04-16T06:39:19;13.37;;;8.83;;
3849;SDS011;1940;51.052;13.678;2023-04-16T06:41:46;15.90;;;9.83;;
3849;SDS011;1940;51.052;13.678;2023-04-16T06:44:12;15.23;;;9.60;;
3849;SDS011;1940;51.052;13.678;2023-04-16T06:46:37;14.73;;;9.00;;
3849;SDS011;1940;51.052;13.678;2023-04-16T06:49:03;14.43;;;9.50;;
3849;SDS011;1940;51.052;13.678;2023-04-16T06:51:28;14.83;;;9.73;;
3849;SDS011;1940;51.052;13.678;2023-04-16T06:53:54;13.90;;;9.30;;
3849;SDS011;1940;51.052;13.678;2023-04-16T06:56:20;15.37;;;9.60;;
3849;SDS011;1940;51.052;13.678;2023-04-16T06:58:45;14.53;;;9.27;;
3849;SDS011;1940;51.052;13.678;2023-04-16T07:01:12;14.40;;;9.10;;
3849;SDS011;1940;51.052;13.678;2023-04-16T07:03:37;13.90;;;9.00;;
3849;SDS011;1940;51.052;13.678;2023-04-16T07:06:03;13.30;;;8.70;;
3849;SDS011;1940;51.052;13.678;2023-04-16T07:08:28;13.83;;;8.57;;
3849;SDS011;1940;51.052;13.678;2023-04-16T07:10:54;14.13;;;9.17;;
3849;SDS011;1940;51.052;13.678;2023-04-16T07:13:19;14.13;;;9.27;;
3849;SDS011;1940;51.052;13.678;2023-04-16T07:15:45;15.73;;;10.00;;
3849;SDS011;1940;51.052;13.678;2023-04-16T07:18:11;14.77;;;9.57;;
3849;SDS011;1940;51.052;13.678;2023-04-16T07:20:37;15.87;;;9.40;;
3849;SDS011;1940;51.052;13.678;2023-04-16T07:23:02;14.90;;;9.93;;
3849;SDS011;1940;51.052;13.678;2023-04-16T07:25:28;14.20;;;9.17;;
3849;SDS011;1940;51.052;13.678;2023-04-16T07:27:53;15.20;;;10.23;;
3849;SDS011;1940;51.052;13.678;2023-04-16T07:30:19;16.43;;;10.00;;
3849;SDS011;1940;51.052;13.678;2023-04-16T07:32:44;13.33;;;9.13;;
3849;SDS011;1940;51.052;13.678;2023-04-16T07:35:10;15.40;;;9.80;;
3849;SDS011;1940;51.052;13.678;2023-04-16T07:37:35;15.63;;;9.50;;
3849;SDS011;1940;51.052;13.678;2023-04-16T07:40:01;14.33;;;9.73;;
3849;SDS011;1940;51.052;13.678;2023-04-16T07:42:26;15.10;;;10.10;;
3849;SDS011;1940;51.052;13.678;2023-04-16T07:44:52;13.93;;;9.57;;
3849;SDS011;1940;51.052;13.678;2023-04-16T07:47:18;16.63;;;10.10;;
3849;SDS011;1940;51.052;13.678;2023-04-16T07:49:44;14.97;;;10.13;;
3849;SDS011;1940;51.052;13.678;2023-04-16T07:52:09;15.13;;;9.63;;
3849;SDS011;1940;51.052;13.678;2023-04-16T07:54:35;15.93;;;10.30;;
3849;SDS011;1940;51.052;13.678;2023-04-16T07:57:01;16.53;;;10.33;;
3849;SDS011;1940;51.052;13.678;2023-04-16T07:59:26;18.53;;;10.43;;
3849;SDS011;1940;51.052;13.678;2023-04-16T08:01:52;14.97;;;9.80;;
3849;SDS011;1940;51.052;13.678;2023-04-16T08:04:18;16.20;;;10.03;;
3849;SDS011;1940;51.052;13.678;2023-04-16T08:06:48;15.10;;;9.50;;
3849;SDS011;1940;51.052;13.678;2023-04-16T08:09:14;13.73;;;9.43;;
3849;SDS011;1940;51.052;13.678;2023-04-16T08:11:40;15.63;;;10.50;;
3849;SDS011;1940;51.052;13.678;2023-04-16T08:14:05;19.70;;;10.57;;
3849;SDS011;1940;51.052;13.678;2023-04-16T08:16:31;17.67;;;10.70;;
3849;SDS011;1940;51.052;13.678;2023-04-16T08:18:56;16.63;;;10.83;;
3849;SDS011;1940;51.052;13.678;2023-04-16T08:21:24;18.50;;;11.10;;
3849;SDS011;1940;51.052;13.678;2023-04-16T08:23:51;16.83;;;10.93;;
3849;SDS011;1940;51.052;13.678;2023-04-16T08:26:17;16.40;;;10.77;;
3849;SDS011;1940;51.052;13.678;2023-04-16T08:28:43;18.37;;;11.27;;
3849;SDS011;1940;51.052;13.678;2023-04-16T08:31:10;18.17;;;11.33;;
3849;SDS011;1940;51.052;13.678;2023-04-16T08:33:35;17.33;;;10.70;;
3849;SDS011;1940;51.052;13.678;2023-04-16T08:36:01;18.33;;;11.10;;
3849;SDS011;1940;51.052;13.678;2023-04-16T08:38:26;16.33;;;11.37;;
3849;SDS011;1940;51.052;13.678;2023-04-16T08:40:52;17.40;;;10.93;;
3849;SDS011;1940;51.052;13.678;2023-04-16T08:43:18;18.50;;;11.70;;
3849;SDS011;1940;51.052;13.678;2023-04-16T08:45:47;18.23;;;10.80;;
3849;SDS011;1940;51.052;13.678;2023-04-16T08:48:13;17.47;;;11.60;;
3849;SDS011;1940;51.052;13.678;2023-04-16T08:50:39;18.30;;;11.17;;
3849;SDS011;1940;51.052;13.678;2023-04-16T08:53:06;14.33;;;10.70;;
3849;SDS011;1940;51.052;13.678;2023-04-16T08:55:35;17.60;;;11.80;;
3849;SDS011;1940;51.052;13.678;2023-04-16T08:58:06;17.30;;;11.50;;
3849;SDS011;1940;51.052;13.678;2023-04-16T09:00:39;19.60;;;12.00;;
3849;SDS011;1940;51.052;13.678;2023-04-16T09:03:06;16.43;;;11.33;;
3849;SDS011;1940;51.052;13.678;2023-04-16T09:05:33;19.37;;;12.17;;
3849;SDS011;1940;51.052;13.678;2023-04-16T09:07:59;16.37;;;10.13;;
3849;SDS011;1940;51.052;13.678;2023-04-16T09:10:25;21.80;;;12.63;;
3849;SDS011;1940;51.052;13.678;2023-04-16T09:12:51;18.70;;;11.43;;
3849;SDS011;1940;51.052;13.678;2023-04-16T09:15:19;15.77;;;10.47;;
3849;SDS011;1940;51.052;13.678;2023-04-16T09:17:45;20.00;;;10.80;;
3849;SDS011;1940;51.052;13.678;2023-04-16T09:20:10;13.27;;;8.40;;
3849;SDS011;1940;51.052;13.678;2023-04-16T09:22:36;12.57;;;8.00;;
3849;SDS011;1940;51.052;13.678;2023-04-16T09:25:02;15.80;;;10.23;;
3849;SDS011;1940;51.052;13.678;2023-04-16T09:27:29;15.30;;;10.20;;
3849;SDS011;1940;51.052;13.678;2023-04-16T09:29:55;13.90;;;9.40;;
3849;SDS011;1940;51.052;13.678;2023-04-16T09:32:24;14.53;;;9.00;;
3849;SDS011;1940;51.052;13.678;2023-04-16T09:34:58;15.10;;;9.07;;
3849;SDS011;1940;51.052;13.678;2023-04-16T09:37:27;14.40;;;8.80;;
3849;SDS011;1940;51.052;13.678;2023-04-16T09:42:22;14.07;;;8.90;;
3849;SDS011;1940;51.052;13.678;2023-04-16T09:44:52;14.60;;;8.93;;
3849;SDS011;1940;51.052;13.678;2023-04-16T09:47:19;13.20;;;8.77;;
3849;SDS011;1940;51.052;13.678;2023-04-16T09:49:44;12.77;;;9.10;;
3849;SDS011;1940;51.052;13.678;2023-04-16T09:52:14;15.30;;;9.80;;
3849;SDS011;1940;51.052;13.678;2023-04-16T09:54:48;14.00;;;9.27;;
3849;SDS011;1940;51.052;13.678;2023-04-16T09:57:19;9.97;;;7.07;;
3849;SDS011;1940;51.052;13.678;2023-04-16T09:59:45;9.50;;;5.73;;
3849;SDS011;1940;51.052;13.678;2023-04-16T10:02:11;8.23;;;5.80;;
3849;SDS011;1940;51.052;13.678;2023-04-16T10:04:47;7.07;;;5.20;;
3849;SDS011;1940;51.052;13.678;2023-04-16T10:07:16;6.27;;;5.10;;
3849;SDS011;1940;51.052;13.678;2023-04-16T10:09:43;6.10;;;4.33;;
3849;SDS011;1940;51.052;13.678;2023-04-16T10:12:08;8.50;;;6.00;;
3849;SDS011;1940;51.052;13.678;2023-04-16T10:14:36;7.50;;;5.30;;
3849;SDS011;1940;51.052;13.678;2023-04-16T10:17:02;9.27;;;6.00;;
3849;SDS011;1940;51.052;13.678;2023-04-16T10:19:29;9.90;;;6.53;;
3849;SDS011;1940;51.052;13.678;2023-04-16T10:21:55;9.50;;;6.43;;
3849;SDS011;1940;51.052;13.678;2023-04-16T10:24:22;10.37;;;6.70;;
3849;SDS011;1940;51.052;13.678;2023-04-16T10:26:49;8.90;;;6.63;;
3849;SDS011;1940;51.052;13.678;2023-04-16T10:29:16;7.20;;;5.37;;
3849;SDS011;1940;51.052;13.678;2023-04-16T10:31:42;8.70;;;6.40;;
3849;SDS011;1940;51.052;13.678;2023-04-16T10:34:09;10.30;;;7.20;;
3849;SDS011;1940;51.052;13.678;2023-04-16T10:36:35;8.50;;;6.37;;
3849;SDS011;1940;51.052;13.678;2023-04-16T10:39:01;7.97;;;5.93;;
3849;SDS011;1940;51.052;13.678;2023-04-16T10:41:27;9.40;;;6.13;;
3849;SDS011;1940;51.052;13.678;2023-04-16T10:44:04;7.90;;;5.60;;
3849;SDS011;1940;51.052;13.678;2023-04-16T10:46:35;7.03;;;4.57;;
3849;SDS011;1940;51.052;13.678;2023-04-16T10:49:11;7.20;;;4.97;;
3849;SDS011;1940;51.052;13.678;2023-04-16T10:51:41;4.03;;;3.27;;
3849;SDS011;1940;51.052;13.678;2023-04-16T10:56:42;7.50;;;4.73;;
3849;SDS011;1940;51.052;13.678;2023-04-16T10:59:09;7.60;;;5.60;;
3849;SDS011;1940;51.052;13.678;2023-04-16T11:01:36;7.60;;;5.53;;
3849;SDS011;1940;51.052;13.678;2023-04-16T11:06:43;7.13;;;5.47;;
3849;SDS011;1940;51.052;13.678;2023-04-16T11:09:41;8.30;;;5.90;;
3849;SDS011;1940;51.052;13.678;2023-04-16T11:12:24;7.63;;;5.93;;
3849;SDS011;1940;51.052;13.678;2023-04-16T11:17:48;6.30;;;4.70;;
3849;SDS011;1940;51.052;13.678;2023-04-16T11:22:42;6.73;;;4.70;;
3849;SDS011;1940;51.052;13.678;2023-04-16T11:25:09;5.40;;;4.03;;
3849;SDS011;1940;51.052;13.678;2023-04-16T11:27:35;5.30;;;3.87;;
3849;SDS011;1940;51.052;13.678;2023-04-16T11:30:01;4.63;;;4.00;;
3849;SDS011;1940;51.052;13.678;2023-04-16T11:32:32;6.40;;;3.93;;
3849;SDS011;1940;51.052;13.678;2023-04-16T11:34:59;5.47;;;4.20;;
3849;SDS011;1940;51.052;13.678;2023-04-16T11:37:35;5.50;;;3.93;;
3849;SDS011;1940;51.052;13.678;2023-04-16T11:40:02;3.90;;;3.40;;
3849;SDS011;1940;51.052;13.678;2023-04-16T11:42:30;3.47;;;3.13;;
3849;SDS011;1940;51.052;13.678;2023-04-16T11:44:57;6.60;;;3.97;;
3849;SDS011;1940;51.052;13.678;2023-04-16T11:47:26;4.80;;;4.00;;
3849;SDS011;1940;51.052;13.678;2023-04-16T11:49:53;8.23;;;3.60;;
3849;SDS011;1940;51.052;13.678;2023-04-16T11:52:25;4.37;;;3.40;;
3849;SDS011;1940;51.052;13.678;2023-04-16T11:54:52;4.20;;;3.60;;
3849;SDS011;1940;51.052;13.678;2023-04-16T11:57:24;4.70;;;3.83;;
3849;SDS011;1940;51.052;13.678;2023-04-16T11:59:50;5.30;;;3.97;;
3849;SDS011;1940;51.052;13.678;2023-04-16T12:02:15;4.50;;;3.90;;
3849;SDS011;1940;51.052;13.678;2023-04-16T12:04:41;5.70;;;4.33;;
3849;SDS011;1940;51.052;13.678;2023-04-16T12:09:33;5.00;;;3.40;;
3849;SDS011;1940;51.052;13.678;2023-04-16T12:11:59;7.00;;;3.90;;
3849;SDS011;1940;51.052;13.678;2023-04-16T12:14:25;5.00;;;3.40;;
3849;SDS011;1940;51.052;13.678;2023-04-16T12:16:50;3.43;;;3.07;;
3849;SDS011;1940;51.052;13.678;2023-04-16T12:19:16;3.80;;;2.97;;
3849;SDS011;1940;51.052;13.678;2023-04-16T12:21:46;3.80;;;2.80;;
3849;SDS011;1940;51.052;13.678;2023-04-16T12:24:14;3.27;;;2.93;;
3849;SDS011;1940;51.052;13.678;2023-04-16T12:26:45;6.20;;;3.63;;
3849;SDS011;1940;51.052;13.678;2023-04-16T12:29:16;4.13;;;2.87;;
3849;SDS011;1940;51.052;13.678;2023-04-16T12:31:43;4.93;;;3.87;;
3849;SDS011;1940;51.052;13.678;2023-04-16T12:34:09;6.10;;;4.47;;
3849;SDS011;1940;51.052;13.678;2023-04-16T12:36:35;7.00;;;4.40;;
3849;SDS011;1940;51.052;13.678;2023-04-16T12:39:01;5.23;;;4.70;;
3849;SDS011;1940;51.052;13.678;2023-04-16T12:41:29;6.03;;;5.00;;
3849;SDS011;1940;51.052;13.678;2023-04-16T12:44:05;6.00;;;4.67;;
3849;SDS011;1940;51.052;13.678;2023-04-16T12:46:38;5.20;;;4.00;;
3849;SDS011;1940;51.052;13.678;2023-04-16T12:49:04;6.97;;;5.40;;
3849;SDS011;1940;51.052;13.678;2023-04-16T12:51:30;5.63;;;4.60;;
3849;SDS011;1940;51.052;13.678;2023-04-16T12:53:56;6.90;;;5.20;;
3849;SDS011;1940;51.052;13.678;2023-04-16T12:56:22;7.53;;;5.13;;
3849;SDS011;1940;51.052;13.678;2023-04-16T12:58:47;6.20;;;4.67;;
3849;SDS011;1940;51.052;13.678;2023-04-16T13:01:19;6.97;;;4.83;;
3849;SDS011;1940;51.052;13.678;2023-04-16T13:03:45;7.50;;;5.30;;
3849;SDS011;1940;51.052;13.678;2023-04-16T13:06:11;7.63;;;5.30;;
3849;SDS011;1940;51.052;13.678;2023-04-16T13:08:38;6.20;;;4.70;;
3849;SDS011;1940;51.052;13.678;2023-04-16T13:11:04;7.50;;;5.60;;
3849;SDS011;1940;51.052;13.678;2023-04-16T13:13:30;5.30;;;4.80;;
3849;SDS011;1940;51.052;13.678;2023-04-16T13:15:55;6.47;;;4.93;;
3849;SDS011;1940;51.052;13.678;2023-04-16T13:18:21;7.40;;;5.00;;
3849;SDS011;1940;51.052;13.678;2023-04-16T13:20:47;6.00;;;4.27;;
3849;SDS011;1940;51.052;13.678;2023-04-16T13:23:12;4.63;;;4.17;;
3849;SDS011;1940;51.052;13.678;2023-04-16T13:25:38;6.77;;;4.80;;
3849;SDS011;1940;51.052;13.678;2023-04-16T13:28:03;5.30;;;4.33;;
3849;SDS011;1940;51.052;13.678;2023-04-16T13:30:29;6.40;;;5.00;;
3849;SDS011;1940;51.052;13.678;2023-04-16T13:32:55;6.17;;;4.73;;
3849;SDS011;1940;51.052;13.678;2023-04-16T13:35:21;8.67;;;6.00;;
3849;SDS011;1940;51.052;13.678;2023-04-16T13:37:46;8.57;;;6.03;;
3849;SDS011;1940;51.052;13.678;2023-04-16T13:40:12;7.20;;;5.97;;
3849;SDS011;1940;51.052;13.678;2023-04-16T13:42:38;10.50;;;6.00;;
3849;SDS011;1940;51.052;13.678;2023-04-16T13:45:03;8.33;;;6.20;;
3849;SDS011;1940;51.052;13.678;2023-04-16T13:47:29;8.30;;;5.83;;
3849;SDS011;1940;51.052;13.678;2023-04-16T13:49:54;10.47;;;6.50;;
3849;SDS011;1940;51.052;13.678;2023-04-16T13:52:20;9.00;;;6.50;;
3849;SDS011;1940;51.052;13.678;2023-04-16T13:54:45;7.60;;;5.83;;
3849;SDS011;1940;51.052;13.678;2023-04-16T13:57:11;10.77;;;5.80;;
3849;SDS011;1940;51.052;13.678;2023-04-16T13:59:36;6.80;;;5.23;;
3849;SDS011;1940;51.052;13.678;2023-04-16T14:02:02;8.40;;;5.63;;
3849;SDS011;1940;51.052;13.678;2023-04-16T14:04:29;7.90;;;5.50;;
3849;SDS011;1940;51.052;13.678;2023-04-16T14:06:55;6.40;;;5.10;;
3849;SDS011;1940;51.052;13.678;2023-04-16T14:09:20;7.33;;;5.40;;
3849;SDS011;1940;51.052;13.678;2023-04-16T14:11:46;7.63;;;5.47;;
3849;SDS011;1940;51.052;13.678;2023-04-16T14:14:11;7.80;;;5.20;;
3849;SDS011;1940;51.052;13.678;2023-04-16T14:16:37;8.80;;;5.20;;
3849;SDS011;1940;51.052;13.678;2023-04-16T14:19:03;10.50;;;5.23;;
3849;SDS011;1940;51.052;13.678;2023-04-16T14:21:29;7.40;;;5.40;;
3849;SDS011;1940;51.052;13.678;2023-04-16T14:23:55;8.63;;;5.43;;
3849;SDS011;1940;51.052;13.678;2023-04-16T14:26:20;6.33;;;4.90;;
3849;SDS011;1940;51.052;13.678;2023-04-16T14:28:46;7.03;;;4.77;;
3849;SDS011;1940;51.052;13.678;2023-04-16T14:31:12;5.77;;;4.50;;
3849;SDS011;1940;51.052;13.678;2023-04-16T14:33:37;5.50;;;3.67;;
3849;SDS011;1940;51.052;13.678;2023-04-16T14:36:03;8.30;;;5.40;;
3849;SDS011;1940;51.052;13.678;2023-04-16T14:38:29;6.13;;;3.97;;
3849;SDS011;1940;51.052;13.678;2023-04-16T14:40:55;7.83;;;4.60;;
3849;SDS011;1940;51.052;13.678;2023-04-16T14:43:20;7.50;;;4.83;;
3849;SDS011;1940;51.052;13.678;2023-04-16T14:45:46;6.83;;;4.30;;
3849;SDS011;1940;51.052;13.678;2023-04-16T14:48:11;6.57;;;4.90;;
3849;SDS011;1940;51.052;13.678;2023-04-16T14:50:36;7.40;;;5.40;;
3849;SDS011;1940;51.052;13.678;2023-04-16T14:53:03;5.47;;;3.90;;
3849;SDS011;1940;51.052;13.678;2023-04-16T14:55:29;5.97;;;4.30;;